Notice: iconv(): Detected an illegal character in input string in /home/meteolat/www/weather28/wsLangFunctions.php on line 115

Notice: iconv(): Detected an illegal character in input string in /home/meteolat/www/weather28/wsLangFunctions.php on line 115
Météorologique de l'aéroport - Météo La Turballe
Notice: Undefined index: wuKey in /home/meteolat/www/weather28/wuforecast/wualmanac.php on line 27

Il s'agit d'un problème de communication. Allez directement sur le site Meteoalarm : www.meteoalarm.eu et vérifier les avertissements météorologiques..


Visitez nos sites météorologiques autres:

Template documentation
and downloads

And another site



Rapports METAR proximité

   
EHVK - Volkel Rnlafb, Netherlands
Distance: SO 18 km
Mise à jour: 23-09-2023 07:25
Nuageux  
Nuageux  
   Vent: SSO 14.8 km/h
Vent: SSO 14.8 km/h
Température: 10°C
éolien: 8°C
Point de rosée: 10°C
Humidité: 100%
Baromètre: 1009 hPa
Nuageux: Nuageux
visibilité: More than 10 km
Détails des nuages: Partiellement nuageux 500 ft,
Nuageux 600 ft,
Nuageux 800 ft
EHVK 230525Z AUTO 21008KT 170V240 9999 SCT005 BKN006 BKN008 10/10 Q1009 YLO
EDLV - Niederrhein, Germany
Distance: SE 25 km
Mise à jour: 23-09-2023 07:20
Nuageux  
Nuageux  
   Vent: SO 14.8 km/h
Vent: SO 14.8 km/h
Température: 11°C
Point de rosée: 10°C
Humidité: 94%
Baromètre: 1010 hPa
Nuageux: Nuageux
visibilité: More than 10 km
Détails des nuages: Nuageux 600 ft
EDLV 230520Z 22008KT 9999 BKN006 11/10 Q1010
EHDL - Deelen Rnlafb, Netherlands
Distance: N 35 km
Mise à jour: 23-09-2023 07:25
Brouillard, Nuageux  
Brouillard, Nuageux  
   Vent: SSO 14.8 km/h
Vent: SSO 14.8 km/h
Température: 11°C
Point de rosée: 11°C
Humidité: 100%
Baromètre: 1009 hPa
Nuageux: Nuageux
visibilité: 5 km
Détails des nuages: Partiellement nuageux 400 ft,
Nuageux 500 ft,
Nuageux 600 ft
EHDL 230525Z AUTO 21008KT 150V270 5000 BR SCT004 BKN005 OVC006 11/11 Q1009 YLO
EHEH - Eindhoven Rnlafb, Netherlands
Distance: SO 48 km
Mise à jour: 23-09-2023 07:25
Peu de nuages  
Peu de nuages  
   Vent: SSO 14.8 km/h
Vent: SSO 14.8 km/h
Température: 10°C
éolien: 8°C
Point de rosée: 9°C
Humidité: 94%
Baromètre: 1010 hPa
Nuageux: Peu de nuages
visibilité: More than 10 km
Détails des nuages: Peu de nuages 500 ft
EHEH 230525Z AUTO 21008KT 9999 FEW005 10/09 Q1010 BLU TEMPO SCT006
EHGR - Gilze-Rijen Rnla, Netherlands
Distance: OSO 70 km
Mise à jour: 23-09-2023 07:25
Partiellement nuageux  
Partiellement nuageux  
   Vent: SSO 13 km/h
Vent: SSO 13 km/h
Température: 10°C
éolien: 8°C
Point de rosée: 10°C
Humidité: 100%
Baromètre: 1010 hPa
Nuageux: Partiellement nuageux
visibilité: More than 10 km
Détails des nuages: Peu de nuages 2500 ft,
Partiellement nuageux 2900 ft
EHGR 230525Z AUTO 21007KT 190V260 9999 FEW025 SCT029 10/10 Q1010 BLU
EBBL - Kleine-Brogel(Ba, Belgium
Distance: SSO 71 km
Mise à jour: 23-09-2023 06:55
Claires  
Claires  
   Vent: SO 16.7 km/h
Vent: SO 16.7 km/h
Température: 10°C
éolien: 8°C
Point de rosée: 9°C
Humidité: 94%
Baromètre: 1010 hPa
Nuageux: Claires
visibilité: More than 10 km
Détails des nuages: Claires
EBBL 230455Z AUTO 22009KT 9999 NCD 10/09 Q1010 BLU

Script développé par  Saratoga-weather.org Adapté pour le modèle par  Weerstation Leuven

Équipement que nous utilisons:

Station de Météo
Davis Vantage Pro2

Davis Vantage Pro2